sensor_id;sensor_type;location;lat;lon;timestamp;temperature;humidity
27559;DHT22;15002;52.028;5.670;2024-03-29T00:01:04;12.50;99.90
27559;DHT22;15002;52.028;5.670;2024-03-29T00:03:29;12.50;99.90
27559;DHT22;15002;52.028;5.670;2024-03-29T00:05:55;12.50;99.90
27559;DHT22;15002;52.028;5.670;2024-03-29T00:08:20;12.60;99.90
27559;DHT22;15002;52.028;5.670;2024-03-29T00:10:49;12.60;99.90
27559;DHT22;15002;52.028;5.670;2024-03-29T00:13:15;12.60;99.90
27559;DHT22;15002;52.028;5.670;2024-03-29T00:15:40;12.60;99.90
27559;DHT22;15002;52.028;5.670;2024-03-29T00:18:06;12.60;99.90
27559;DHT22;15002;52.028;5.670;2024-03-29T00:20:32;12.50;99.90
27559;DHT22;15002;52.028;5.670;2024-03-29T00:22:58;12.50;99.90
27559;DHT22;15002;52.028;5.670;2024-03-29T00:25:23;12.60;99.90
27559;DHT22;15002;52.028;5.670;2024-03-29T00:27:49;12.60;99.90
27559;DHT22;15002;52.028;5.670;2024-03-29T00:30:14;12.50;99.90
27559;DHT22;15002;52.028;5.670;2024-03-29T00:32:40;12.50;99.90
27559;DHT22;15002;52.028;5.670;2024-03-29T00:35:06;12.60;99.90
27559;DHT22;15002;52.028;5.670;2024-03-29T00:37:32;12.50;99.90
27559;DHT22;15002;52.028;5.670;2024-03-29T00:39:57;12.50;99.90
27559;DHT22;15002;52.028;5.670;2024-03-29T00:42:24;12.50;99.90
27559;DHT22;15002;52.028;5.670;2024-03-29T00:44:50;12.60;99.90
27559;DHT22;15002;52.028;5.670;2024-03-29T00:47:16;12.60;99.90
27559;DHT22;15002;52.028;5.670;2024-03-29T00:49:41;12.60;99.90
27559;DHT22;15002;52.028;5.670;2024-03-29T00:52:07;12.60;99.90
27559;DHT22;15002;52.028;5.670;2024-03-29T00:54:33;12.60;99.90
27559;DHT22;15002;52.028;5.670;2024-03-29T00:56:58;12.50;99.90
27559;DHT22;15002;52.028;5.670;2024-03-29T00:59:24;12.50;99.90
27559;DHT22;15002;52.028;5.670;2024-03-29T01:01:50;12.40;99.90
27559;DHT22;15002;52.028;5.670;2024-03-29T01:04:16;12.40;99.90
27559;DHT22;15002;52.028;5.670;2024-03-29T01:06:42;12.40;99.90
27559;DHT22;15002;52.028;5.670;2024-03-29T01:09:08;12.30;99.90
27559;DHT22;15002;52.028;5.670;2024-03-29T01:11:39;12.30;99.90
27559;DHT22;15002;52.028;5.670;2024-03-29T01:14:06;12.40;99.90
27559;DHT22;15002;52.028;5.670;2024-03-29T01:16:32;12.40;99.90
27559;DHT22;15002;52.028;5.670;2024-03-29T01:18:58;12.20;99.90
27559;DHT22;15002;52.028;5.670;2024-03-29T01:21:25;12.20;99.90
27559;DHT22;15002;52.028;5.670;2024-03-29T01:23:51;12.00;99.90
27559;DHT22;15002;52.028;5.670;2024-03-29T01:26:16;12.00;99.90
27559;DHT22;15002;52.028;5.670;2024-03-29T01:28:43;11.90;99.90
27559;DHT22;15002;52.028;5.670;2024-03-29T01:31:08;12.00;99.90
27559;DHT22;15002;52.028;5.670;2024-03-29T01:33:34;12.00;99.90
27559;DHT22;15002;52.028;5.670;2024-03-29T01:36:03;12.10;99.90
27559;DHT22;15002;52.028;5.670;2024-03-29T01:38:29;12.20;99.90
27559;DHT22;15002;52.028;5.670;2024-03-29T01:40:55;12.20;99.90
27559;DHT22;15002;52.028;5.670;2024-03-29T01:43:21;12.30;99.90
27559;DHT22;15002;52.028;5.670;2024-03-29T01:45:48;12.30;99.90
27559;DHT22;15002;52.028;5.670;2024-03-29T01:48:17;12.20;99.90
27559;DHT22;15002;52.028;5.670;2024-03-29T01:50:43;12.20;99.90
27559;DHT22;15002;52.028;5.670;2024-03-29T01:53:09;12.20;99.90
27559;DHT22;15002;52.028;5.670;2024-03-29T01:55:35;12.20;99.90
27559;DHT22;15002;52.028;5.670;2024-03-29T01:58:01;12.20;99.90
27559;DHT22;15002;52.028;5.670;2024-03-29T02:00:29;12.20;99.90
27559;DHT22;15002;52.028;5.670;2024-03-29T02:02:56;12.10;99.90
27559;DHT22;15002;52.028;5.670;2024-03-29T02:05:22;12.00;99.90
27559;DHT22;15002;52.028;5.670;2024-03-29T02:07:48;12.00;99.90
27559;DHT22;15002;52.028;5.670;2024-03-29T02:10:15;12.10;99.90
27559;DHT22;15002;52.028;5.670;2024-03-29T02:12:40;12.00;99.90
27559;DHT22;15002;52.028;5.670;2024-03-29T02:15:06;12.20;99.90
27559;DHT22;15002;52.028;5.670;2024-03-29T02:17:32;12.20;99.90
27559;DHT22;15002;52.028;5.670;2024-03-29T02:19:58;12.20;99.90
27559;DHT22;15002;52.028;5.670;2024-03-29T02:22:25;12.00;99.90
27559;DHT22;15002;52.028;5.670;2024-03-29T02:24:52;12.00;99.90
27559;DHT22;15002;52.028;5.670;2024-03-29T02:27:19;12.00;99.90
27559;DHT22;15002;52.028;5.670;2024-03-29T02:29:45;11.90;99.90
27559;DHT22;15002;52.028;5.670;2024-03-29T02:32:11;11.80;99.90
27559;DHT22;15002;52.028;5.670;2024-03-29T02:34:36;11.90;99.90
27559;DHT22;15002;52.028;5.670;2024-03-29T02:37:02;11.90;99.90
27559;DHT22;15002;52.028;5.670;2024-03-29T02:39:28;12.00;99.90
27559;DHT22;15002;52.028;5.670;2024-03-29T02:41:53;12.00;99.90
27559;DHT22;15002;52.028;5.670;2024-03-29T02:44:19;11.90;99.90
27559;DHT22;15002;52.028;5.670;2024-03-29T02:46:44;11.80;99.90
27559;DHT22;15002;52.028;5.670;2024-03-29T02:49:10;11.80;99.90
27559;DHT22;15002;52.028;5.670;2024-03-29T02:51:36;11.90;99.90
27559;DHT22;15002;52.028;5.670;2024-03-29T02:54:01;11.90;99.90
27559;DHT22;15002;52.028;5.670;2024-03-29T02:56:27;11.80;99.90
27559;DHT22;15002;52.028;5.670;2024-03-29T02:58:54;11.80;99.90
27559;DHT22;15002;52.028;5.670;2024-03-29T03:01:19;11.80;99.90
27559;DHT22;15002;52.028;5.670;2024-03-29T03:03:45;11.80;99.90
27559;DHT22;15002;52.028;5.670;2024-03-29T03:06:11;11.90;99.90
27559;DHT22;15002;52.028;5.670;2024-03-29T03:08:36;12.00;99.90
27559;DHT22;15002;52.028;5.670;2024-03-29T03:11:21;12.20;99.90
27559;DHT22;15002;52.028;5.670;2024-03-29T03:13:46;12.20;99.90
27559;DHT22;15002;52.028;5.670;2024-03-29T03:16:12;12.20;99.90
27559;DHT22;15002;52.028;5.670;2024-03-29T03:18:37;12.20;99.90
27559;DHT22;15002;52.028;5.670;2024-03-29T03:21:03;12.30;99.90
27559;DHT22;15002;52.028;5.670;2024-03-29T03:23:29;12.30;99.90
27559;DHT22;15002;52.028;5.670;2024-03-29T03:28:21;12.30;99.90
27559;DHT22;15002;52.028;5.670;2024-03-29T03:30:48;12.30;99.90
27559;DHT22;15002;52.028;5.670;2024-03-29T03:33:13;12.50;99.90
27559;DHT22;15002;52.028;5.670;2024-03-29T03:35:39;12.40;99.90
27559;DHT22;15002;52.028;5.670;2024-03-29T03:38:04;12.30;99.90
27559;DHT22;15002;52.028;5.670;2024-03-29T03:40:30;12.30;99.90
27559;DHT22;15002;52.028;5.670;2024-03-29T03:42:56;12.30;99.90
27559;DHT22;15002;52.028;5.670;2024-03-29T03:45:21;12.30;99.90
27559;DHT22;15002;52.028;5.670;2024-03-29T03:47:48;12.30;99.90
27559;DHT22;15002;52.028;5.670;2024-03-29T03:50:13;12.30;99.90
27559;DHT22;15002;52.028;5.670;2024-03-29T03:52:39;12.30;99.90
27559;DHT22;15002;52.028;5.670;2024-03-29T03:55:05;12.40;99.90
27559;DHT22;15002;52.028;5.670;2024-03-29T03:57:31;12.40;99.90
27559;DHT22;15002;52.028;5.670;2024-03-29T03:59:57;12.30;99.90
27559;DHT22;15002;52.028;5.670;2024-03-29T04:02:22;12.30;99.90
27559;DHT22;15002;52.028;5.670;2024-03-29T04:04:48;12.30;99.90
27559;DHT22;15002;52.028;5.670;2024-03-29T04:07:14;12.40;99.90
27559;DHT22;15002;52.028;5.670;2024-03-29T04:09:39;12.60;99.90
27559;DHT22;15002;52.028;5.670;2024-03-29T04:12:05;12.70;99.90
27559;DHT22;15002;52.028;5.670;2024-03-29T04:14:31;12.80;99.90
27559;DHT22;15002;52.028;5.670;2024-03-29T04:16:56;12.70;99.90
27559;DHT22;15002;52.028;5.670;2024-03-29T04:19:22;12.80;99.90
27559;DHT22;15002;52.028;5.670;2024-03-29T04:21:48;12.70;99.90
27559;DHT22;15002;52.028;5.670;2024-03-29T04:24:13;12.80;99.90
27559;DHT22;15002;52.028;5.670;2024-03-29T04:26:39;12.70;99.90
27559;DHT22;15002;52.028;5.670;2024-03-29T04:29:05;12.70;99.90
27559;DHT22;15002;52.028;5.670;2024-03-29T04:31:30;12.60;99.90
27559;DHT22;15002;52.028;5.670;2024-03-29T04:33:56;12.60;99.90
27559;DHT22;15002;52.028;5.670;2024-03-29T04:36:22;12.60;99.90
27559;DHT22;15002;52.028;5.670;2024-03-29T04:38:48;12.50;99.90
27559;DHT22;15002;52.028;5.670;2024-03-29T04:41:13;12.60;99.90
27559;DHT22;15002;52.028;5.670;2024-03-29T04:43:40;12.60;99.90
27559;DHT22;15002;52.028;5.670;2024-03-29T04:46:10;12.50;99.90
27559;DHT22;15002;52.028;5.670;2024-03-29T04:48:36;12.70;99.90
27559;DHT22;15002;52.028;5.670;2024-03-29T04:51:02;12.60;99.90
27559;DHT22;15002;52.028;5.670;2024-03-29T04:53:28;12.80;99.90
27559;DHT22;15002;52.028;5.670;2024-03-29T04:55:57;12.60;99.90
27559;DHT22;15002;52.028;5.670;2024-03-29T04:58:24;12.50;99.90
27559;DHT22;15002;52.028;5.670;2024-03-29T05:00:51;12.40;99.90
27559;DHT22;15002;52.028;5.670;2024-03-29T05:03:17;12.40;99.90
27559;DHT22;15002;52.028;5.670;2024-03-29T05:05:44;12.50;99.90
27559;DHT22;15002;52.028;5.670;2024-03-29T05:08:10;12.50;99.90
27559;DHT22;15002;52.028;5.670;2024-03-29T05:10:35;12.40;99.90
27559;DHT22;15002;52.028;5.670;2024-03-29T05:13:01;12.50;99.90
27559;DHT22;15002;52.028;5.670;2024-03-29T05:15:27;12.40;99.90
27559;DHT22;15002;52.028;5.670;2024-03-29T05:17:53;12.40;99.90
27559;DHT22;15002;52.028;5.670;2024-03-29T05:20:21;12.40;99.90
27559;DHT22;15002;52.028;5.670;2024-03-29T05:22:46;12.30;99.90
27559;DHT22;15002;52.028;5.670;2024-03-29T05:25:12;12.30;99.90
27559;DHT22;15002;52.028;5.670;2024-03-29T05:27:37;12.40;99.90
27559;DHT22;15002;52.028;5.670;2024-03-29T05:30:04;12.40;99.90
27559;DHT22;15002;52.028;5.670;2024-03-29T05:32:30;12.20;99.90
27559;DHT22;15002;52.028;5.670;2024-03-29T05:34:56;12.40;99.90
27559;DHT22;15002;52.028;5.670;2024-03-29T05:37:22;12.30;99.90
27559;DHT22;15002;52.028;5.670;2024-03-29T05:39:50;12.40;99.90
27559;DHT22;15002;52.028;5.670;2024-03-29T05:42:28;12.30;99.90
27559;DHT22;15002;52.028;5.670;2024-03-29T05:44:54;12.20;99.90
27559;DHT22;15002;52.028;5.670;2024-03-29T05:47:20;12.10;99.90
27559;DHT22;15002;52.028;5.670;2024-03-29T05:49:49;12.20;99.90
27559;DHT22;15002;52.028;5.670;2024-03-29T05:52:15;12.10;99.90
27559;DHT22;15002;52.028;5.670;2024-03-29T05:54:42;11.90;99.90
27559;DHT22;15002;52.028;5.670;2024-03-29T05:57:08;11.90;99.90
27559;DHT22;15002;52.028;5.670;2024-03-29T05:59:34;11.90;99.90
27559;DHT22;15002;52.028;5.670;2024-03-29T06:01:59;11.80;99.90
27559;DHT22;15002;52.028;5.670;2024-03-29T06:04:25;11.80;99.90
27559;DHT22;15002;52.028;5.670;2024-03-29T06:07:01;12.00;99.90
27559;DHT22;15002;52.028;5.670;2024-03-29T06:09:27;12.00;99.90
27559;DHT22;15002;52.028;5.670;2024-03-29T06:11:54;12.20;99.90
27559;DHT22;15002;52.028;5.670;2024-03-29T06:14:20;12.20;99.90
27559;DHT22;15002;52.028;5.670;2024-03-29T06:17:04;12.20;99.90
27559;DHT22;15002;52.028;5.670;2024-03-29T06:19:48;12.00;99.90
27559;DHT22;15002;52.028;5.670;2024-03-29T06:22:15;12.10;99.90
27559;DHT22;15002;52.028;5.670;2024-03-29T06:24:42;12.10;99.90
27559;DHT22;15002;52.028;5.670;2024-03-29T06:27:09;11.80;99.90
27559;DHT22;15002;52.028;5.670;2024-03-29T06:29:34;11.90;99.90
27559;DHT22;15002;52.028;5.670;2024-03-29T06:32:00;11.90;99.90
27559;DHT22;15002;52.028;5.670;2024-03-29T06:34:26;11.80;99.90
27559;DHT22;15002;52.028;5.670;2024-03-29T06:36:51;11.70;99.90
27559;DHT22;15002;52.028;5.670;2024-03-29T06:39:17;11.50;99.90
27559;DHT22;15002;52.028;5.670;2024-03-29T06:41:42;11.60;99.90
27559;DHT22;15002;52.028;5.670;2024-03-29T06:44:08;11.60;99.90
27559;DHT22;15002;52.028;5.670;2024-03-29T06:46:34;11.60;99.90
27559;DHT22;15002;52.028;5.670;2024-03-29T06:49:00;11.70;99.90
27559;DHT22;15002;52.028;5.670;2024-03-29T06:51:26;11.80;99.90
27559;DHT22;15002;52.028;5.670;2024-03-29T06:53:52;11.90;99.90
27559;DHT22;15002;52.028;5.670;2024-03-29T06:56:17;11.60;99.90
27559;DHT22;15002;52.028;5.670;2024-03-29T06:58:43;11.60;99.90
27559;DHT22;15002;52.028;5.670;2024-03-29T07:01:09;12.00;99.90
27559;DHT22;15002;52.028;5.670;2024-03-29T07:03:34;12.10;99.90
27559;DHT22;15002;52.028;5.670;2024-03-29T07:06:00;12.10;99.90
27559;DHT22;15002;52.028;5.670;2024-03-29T07:08:26;12.10;99.90
27559;DHT22;15002;52.028;5.670;2024-03-29T07:11:01;12.00;99.90
27559;DHT22;15002;52.028;5.670;2024-03-29T07:13:28;12.10;99.90
27559;DHT22;15002;52.028;5.670;2024-03-29T07:15:55;12.00;99.90
27559;DHT22;15002;52.028;5.670;2024-03-29T07:18:20;11.80;99.90
27559;DHT22;15002;52.028;5.670;2024-03-29T07:20:46;11.70;99.90
27559;DHT22;15002;52.028;5.670;2024-03-29T07:23:12;11.90;99.90
27559;DHT22;15002;52.028;5.670;2024-03-29T07:25:38;12.20;99.90
27559;DHT22;15002;52.028;5.670;2024-03-29T07:28:04;11.80;99.90
27559;DHT22;15002;52.028;5.670;2024-03-29T07:30:30;12.00;99.90
27559;DHT22;15002;52.028;5.670;2024-03-29T07:32:56;12.00;99.90
27559;DHT22;15002;52.028;5.670;2024-03-29T07:35:21;12.00;99.90
27559;DHT22;15002;52.028;5.670;2024-03-29T07:37:47;11.80;99.90
27559;DHT22;15002;52.028;5.670;2024-03-29T07:40:15;11.90;99.90
27559;DHT22;15002;52.028;5.670;2024-03-29T07:42:40;12.00;99.90
27559;DHT22;15002;52.028;5.670;2024-03-29T07:45:06;12.00;99.90
27559;DHT22;15002;52.028;5.670;2024-03-29T07:47:32;12.10;99.90
27559;DHT22;15002;52.028;5.670;2024-03-29T07:49:58;12.10;99.90
27559;DHT22;15002;52.028;5.670;2024-03-29T07:52:23;12.10;99.90
27559;DHT22;15002;52.028;5.670;2024-03-29T07:54:50;11.90;99.90
27559;DHT22;15002;52.028;5.670;2024-03-29T07:57:16;11.90;99.90
27559;DHT22;15002;52.028;5.670;2024-03-29T07:59:42;12.10;99.90
27559;DHT22;15002;52.028;5.670;2024-03-29T08:02:08;12.00;99.90
27559;DHT22;15002;52.028;5.670;2024-03-29T08:04:34;11.80;99.90
27559;DHT22;15002;52.028;5.670;2024-03-29T08:07:00;12.00;99.90
27559;DHT22;15002;52.028;5.670;2024-03-29T08:09:26;12.20;99.90
27559;DHT22;15002;52.028;5.670;2024-03-29T08:11:51;12.40;99.90
27559;DHT22;15002;52.028;5.670;2024-03-29T08:14:17;12.40;99.90
27559;DHT22;15002;52.028;5.670;2024-03-29T08:16:43;12.40;99.90
27559;DHT22;15002;52.028;5.670;2024-03-29T08:19:09;12.20;99.90
27559;DHT22;15002;52.028;5.670;2024-03-29T08:21:35;12.30;99.90
27559;DHT22;15002;52.028;5.670;2024-03-29T08:24:01;12.30;99.90
27559;DHT22;15002;52.028;5.670;2024-03-29T08:26:29;12.30;99.90
27559;DHT22;15002;52.028;5.670;2024-03-29T08:28:55;12.40;99.90
27559;DHT22;15002;52.028;5.670;2024-03-29T08:31:20;12.40;99.90
27559;DHT22;15002;52.028;5.670;2024-03-29T08:33:46;12.70;99.90
27559;DHT22;15002;52.028;5.670;2024-03-29T08:36:12;12.70;99.90
27559;DHT22;15002;52.028;5.670;2024-03-29T08:38:38;12.80;99.90
27559;DHT22;15002;52.028;5.670;2024-03-29T08:41:08;12.90;99.90
27559;DHT22;15002;52.028;5.670;2024-03-29T08:43:34;12.90;99.90
27559;DHT22;15002;52.028;5.670;2024-03-29T08:45:59;12.80;99.90
27559;DHT22;15002;52.028;5.670;2024-03-29T08:48:26;12.90;99.90
27559;DHT22;15002;52.028;5.670;2024-03-29T08:50:52;13.00;99.90
27559;DHT22;15002;52.028;5.670;2024-03-29T08:53:18;13.00;99.90
27559;DHT22;15002;52.028;5.670;2024-03-29T08:55:46;12.80;99.90
27559;DHT22;15002;52.028;5.670;2024-03-29T08:58:12;12.80;99.90
27559;DHT22;15002;52.028;5.670;2024-03-29T09:00:37;13.00;99.90
27559;DHT22;15002;52.028;5.670;2024-03-29T09:03:03;12.80;99.90
27559;DHT22;15002;52.028;5.670;2024-03-29T09:05:29;13.00;99.90
27559;DHT22;15002;52.028;5.670;2024-03-29T09:07:55;13.40;99.90
27559;DHT22;15002;52.028;5.670;2024-03-29T09:10:25;13.60;99.90
27559;DHT22;15002;52.028;5.670;2024-03-29T09:12:52;13.60;99.90
27559;DHT22;15002;52.028;5.670;2024-03-29T09:15:18;13.90;99.90
27559;DHT22;15002;52.028;5.670;2024-03-29T09:17:44;14.30;99.90
27559;DHT22;15002;52.028;5.670;2024-03-29T09:20:10;14.20;99.90
27559;DHT22;15002;52.028;5.670;2024-03-29T09:22:36;14.50;99.90
27559;DHT22;15002;52.028;5.670;2024-03-29T09:25:04;14.50;99.90
27559;DHT22;15002;52.028;5.670;2024-03-29T09:27:29;14.80;99.90
27559;DHT22;15002;52.028;5.670;2024-03-29T09:29:55;15.00;99.90
27559;DHT22;15002;52.028;5.670;2024-03-29T09:32:22;15.50;99.90
27559;DHT22;15002;52.028;5.670;2024-03-29T09:34:48;15.80;99.90
27559;DHT22;15002;52.028;5.670;2024-03-29T09:37:14;16.00;99.90
27559;DHT22;15002;52.028;5.670;2024-03-29T09:39:40;16.40;99.90
27559;DHT22;15002;52.028;5.670;2024-03-29T09:42:06;16.50;99.90
27559;DHT22;15002;52.028;5.670;2024-03-29T09:44:34;16.60;99.90
27559;DHT22;15002;52.028;5.670;2024-03-29T09:47:03;16.90;99.90
27559;DHT22;15002;52.028;5.670;2024-03-29T09:49:31;16.90;99.90
27559;DHT22;15002;52.028;5.670;2024-03-29T09:51:57;16.80;99.90
27559;DHT22;15002;52.028;5.670;2024-03-29T09:54:24;16.90;99.90
27559;DHT22;15002;52.028;5.670;2024-03-29T09:56:52;17.20;99.90
27559;DHT22;15002;52.028;5.670;2024-03-29T09:59:18;16.90;99.90
27559;DHT22;15002;52.028;5.670;2024-03-29T10:01:44;16.80;99.90
27559;DHT22;15002;52.028;5.670;2024-03-29T10:04:10;16.90;99.90
27559;DHT22;15002;52.028;5.670;2024-03-29T10:06:38;16.80;99.90
27559;DHT22;15002;52.028;5.670;2024-03-29T10:09:05;16.50;99.90
27559;DHT22;15002;52.028;5.670;2024-03-29T10:11:31;16.60;99.90
27559;DHT22;15002;52.028;5.670;2024-03-29T10:13:56;16.50;99.90
27559;DHT22;15002;52.028;5.670;2024-03-29T10:16:22;16.10;99.90
27559;DHT22;15002;52.028;5.670;2024-03-29T10:18:50;16.10;99.90
27559;DHT22;15002;52.028;5.670;2024-03-29T10:21:15;16.20;99.90
27559;DHT22;15002;52.028;5.670;2024-03-29T10:23:42;16.10;99.90
27559;DHT22;15002;52.028;5.670;2024-03-29T10:26:09;16.20;99.90
27559;DHT22;15002;52.028;5.670;2024-03-29T10:28:35;16.20;99.90
27559;DHT22;15002;52.028;5.670;2024-03-29T10:31:03;16.00;99.90
27559;DHT22;15002;52.028;5.670;2024-03-29T10:33:30;16.60;99.90
27559;DHT22;15002;52.028;5.670;2024-03-29T10:35:56;16.80;99.90
27559;DHT22;15002;52.028;5.670;2024-03-29T10:38:24;16.60;99.90
27559;DHT22;15002;52.028;5.670;2024-03-29T10:40:51;16.10;99.90
27559;DHT22;15002;52.028;5.670;2024-03-29T10:43:19;16.30;99.90
27559;DHT22;15002;52.028;5.670;2024-03-29T10:45:46;16.70;99.90
27559;DHT22;15002;52.028;5.670;2024-03-29T10:48:15;17.00;99.90
27559;DHT22;15002;52.028;5.670;2024-03-29T10:50:41;16.50;99.90
27559;DHT22;15002;52.028;5.670;2024-03-29T10:53:09;16.20;99.90
27559;DHT22;15002;52.028;5.670;2024-03-29T10:55:36;16.80;99.90
27559;DHT22;15002;52.028;5.670;2024-03-29T10:58:03;16.80;99.90
27559;DHT22;15002;52.028;5.670;2024-03-29T11:00:32;16.90;99.90
27559;DHT22;15002;52.028;5.670;2024-03-29T11:03:18;16.50;99.90
27559;DHT22;15002;52.028;5.670;2024-03-29T11:05:48;16.20;99.90
27559;DHT22;15002;52.028;5.670;2024-03-29T11:08:23;16.20;99.90
27559;DHT22;15002;52.028;5.670;2024-03-29T11:10:53;16.50;99.90
27559;DHT22;15002;52.028;5.670;2024-03-29T11:16:23;17.00;99.90
27559;DHT22;15002;52.028;5.670;2024-03-29T11:18:49;16.60;99.90
27559;DHT22;15002;52.028;5.670;2024-03-29T11:21:16;16.10;99.90
27559;DHT22;15002;52.028;5.670;2024-03-29T11:23:53;16.10;99.90
27559;DHT22;15002;52.028;5.670;2024-03-29T11:26:19;16.10;99.90
27559;DHT22;15002;52.028;5.670;2024-03-29T11:28:52;16.50;99.90
27559;DHT22;15002;52.028;5.670;2024-03-29T11:31:24;16.50;99.90
27559;DHT22;15002;52.028;5.670;2024-03-29T11:33:50;16.20;99.90
27559;DHT22;15002;52.028;5.670;2024-03-29T11:38:48;16.60;99.90
27559;DHT22;15002;52.028;5.670;2024-03-29T11:41:19;16.30;99.90
27559;DHT22;15002;52.028;5.670;2024-03-29T11:43:46;16.30;99.90
27559;DHT22;15002;52.028;5.670;2024-03-29T11:46:13;16.40;99.90
27559;DHT22;15002;52.028;5.670;2024-03-29T11:48:40;16.50;99.90
27559;DHT22;15002;52.028;5.670;2024-03-29T11:51:08;16.00;99.90
27559;DHT22;15002;52.028;5.670;2024-03-29T11:53:35;15.90;99.90
27559;DHT22;15002;52.028;5.670;2024-03-29T11:56:02;16.00;99.90
27559;DHT22;15002;52.028;5.670;2024-03-29T11:58:29;16.00;99.90
27559;DHT22;15002;52.028;5.670;2024-03-29T12:00:56;16.10;99.90
27559;DHT22;15002;52.028;5.670;2024-03-29T12:03:24;16.40;99.90
27559;DHT22;15002;52.028;5.670;2024-03-29T12:05:51;16.80;99.90
27559;DHT22;15002;52.028;5.670;2024-03-29T12:08:20;17.00;99.90
27559;DHT22;15002;52.028;5.670;2024-03-29T12:10:46;17.30;99.90
27559;DHT22;15002;52.028;5.670;2024-03-29T12:13:16;17.60;99.90
27559;DHT22;15002;52.028;5.670;2024-03-29T12:15:42;17.60;99.90
27559;DHT22;15002;52.028;5.670;2024-03-29T12:18:08;17.40;99.90
27559;DHT22;15002;52.028;5.670;2024-03-29T12:20:38;17.20;99.90
27559;DHT22;15002;52.028;5.670;2024-03-29T12:23:08;17.00;99.90
27559;DHT22;15002;52.028;5.670;2024-03-29T12:25:36;17.10;99.90
27559;DHT22;15002;52.028;5.670;2024-03-29T12:28:02;16.80;99.90
27559;DHT22;15002;52.028;5.670;2024-03-29T12:30:28;16.60;99.90
27559;DHT22;15002;52.028;5.670;2024-03-29T12:35:28;16.80;99.90
27559;DHT22;15002;52.028;5.670;2024-03-29T12:37:55;16.80;99.90
27559;DHT22;15002;52.028;5.670;2024-03-29T12:40:24;17.20;99.90
27559;DHT22;15002;52.028;5.670;2024-03-29T12:42:51;17.30;99.90
27559;DHT22;15002;52.028;5.670;2024-03-29T12:45:20;17.40;99.90
27559;DHT22;15002;52.028;5.670;2024-03-29T12:47:47;17.40;99.90
27559;DHT22;15002;52.028;5.670;2024-03-29T12:50:25;17.40;99.90
27559;DHT22;15002;52.028;5.670;2024-03-29T12:53:00;17.60;99.90
27559;DHT22;15002;52.028;5.670;2024-03-29T12:55:27;17.60;99.90
27559;DHT22;15002;52.028;5.670;2024-03-29T12:57:56;17.50;99.90
27559;DHT22;15002;52.028;5.670;2024-03-29T13:00:22;17.60;99.90
27559;DHT22;15002;52.028;5.670;2024-03-29T13:02:49;17.70;99.90
27559;DHT22;15002;52.028;5.670;2024-03-29T13:05:15;17.70;99.90
27559;DHT22;15002;52.028;5.670;2024-03-29T13:07:41;17.60;99.90
27559;DHT22;15002;52.028;5.670;2024-03-29T13:10:07;17.50;99.90
27559;DHT22;15002;52.028;5.670;2024-03-29T13:12:41;17.70;99.90
27559;DHT22;15002;52.028;5.670;2024-03-29T13:15:22;17.70;99.90
27559;DHT22;15002;52.028;5.670;2024-03-29T13:17:51;17.60;99.90
27559;DHT22;15002;52.028;5.670;2024-03-29T13:20:17;17.40;99.90
27559;DHT22;15002;52.028;5.670;2024-03-29T13:22:44;17.40;99.90
27559;DHT22;15002;52.028;5.670;2024-03-29T13:25:12;17.70;99.90
27559;DHT22;15002;52.028;5.670;2024-03-29T13:27:38;18.00;99.90
27559;DHT22;15002;52.028;5.670;2024-03-29T13:30:06;18.10;99.90
27559;DHT22;15002;52.028;5.670;2024-03-29T13:32:32;17.90;99.90
27559;DHT22;15002;52.028;5.670;2024-03-29T13:34:59;18.10;99.90
27559;DHT22;15002;52.028;5.670;2024-03-29T13:37:24;17.90;99.90
27559;DHT22;15002;52.028;5.670;2024-03-29T13:39:55;17.80;99.90
27559;DHT22;15002;52.028;5.670;2024-03-29T13:42:21;17.80;99.90
27559;DHT22;15002;52.028;5.670;2024-03-29T13:44:51;17.70;99.90
27559;DHT22;15002;52.028;5.670;2024-03-29T13:47:17;17.90;99.90
27559;DHT22;15002;52.028;5.670;2024-03-29T13:49:44;17.70;99.90
27559;DHT22;15002;52.028;5.670;2024-03-29T13:52:10;17.40;99.90
27559;DHT22;15002;52.028;5.670;2024-03-29T13:54:35;17.10;99.90
27559;DHT22;15002;52.028;5.670;2024-03-29T13:57:02;17.10;99.90
27559;DHT22;15002;52.028;5.670;2024-03-29T13:59:29;17.10;99.90
27559;DHT22;15002;52.028;5.670;2024-03-29T14:01:55;17.40;99.90
27559;DHT22;15002;52.028;5.670;2024-03-29T14:04:20;17.80;99.90
27559;DHT22;15002;52.028;5.670;2024-03-29T14:06:46;17.50;99.90
27559;DHT22;15002;52.028;5.670;2024-03-29T14:09:11;17.50;99.90
27559;DHT22;15002;52.028;5.670;2024-03-29T14:11:37;17.40;99.90
27559;DHT22;15002;52.028;5.670;2024-03-29T14:14:03;17.30;99.90
27559;DHT22;15002;52.028;5.670;2024-03-29T14:16:30;17.40;99.90
27559;DHT22;15002;52.028;5.670;2024-03-29T14:18:56;17.80;99.90
27559;DHT22;15002;52.028;5.670;2024-03-29T14:21:21;18.20;99.90
27559;DHT22;15002;52.028;5.670;2024-03-29T14:23:47;18.20;99.90
27559;DHT22;15002;52.028;5.670;2024-03-29T14:26:13;17.90;99.90
27559;DHT22;15002;52.028;5.670;2024-03-29T14:28:39;17.80;99.90
27559;DHT22;15002;52.028;5.670;2024-03-29T14:31:04;18.10;99.90
27559;DHT22;15002;52.028;5.670;2024-03-29T14:33:30;18.30;99.90
27559;DHT22;15002;52.028;5.670;2024-03-29T14:35:56;18.30;99.90
27559;DHT22;15002;52.028;5.670;2024-03-29T14:38:23;18.40;99.90
27559;DHT22;15002;52.028;5.670;2024-03-29T14:40:49;18.60;99.90
27559;DHT22;15002;52.028;5.670;2024-03-29T14:43:14;18.80;99.90
27559;DHT22;15002;52.028;5.670;2024-03-29T14:45:41;18.90;99.90
27559;DHT22;15002;52.028;5.670;2024-03-29T14:48:07;18.80;99.90
27559;DHT22;15002;52.028;5.670;2024-03-29T14:50:33;19.00;99.90
27559;DHT22;15002;52.028;5.670;2024-03-29T14:52:58;19.10;99.90
27559;DHT22;15002;52.028;5.670;2024-03-29T14:55:24;19.00;99.90
27559;DHT22;15002;52.028;5.670;2024-03-29T14:57:51;18.40;99.90
27559;DHT22;15002;52.028;5.670;2024-03-29T15:00:18;18.30;99.90
27559;DHT22;15002;52.028;5.670;2024-03-29T15:02:44;18.20;99.90
27559;DHT22;15002;52.028;5.670;2024-03-29T15:05:11;18.10;99.90
27559;DHT22;15002;52.028;5.670;2024-03-29T15:07:38;18.10;99.90
27559;DHT22;15002;52.028;5.670;2024-03-29T15:10:03;18.10;99.90
27559;DHT22;15002;52.028;5.670;2024-03-29T15:12:38;18.00;99.90
27559;DHT22;15002;52.028;5.670;2024-03-29T15:15:05;18.10;99.90
27559;DHT22;15002;52.028;5.670;2024-03-29T15:17:31;18.20;99.90
27559;DHT22;15002;52.028;5.670;2024-03-29T15:19:58;18.30;99.90
27559;DHT22;15002;52.028;5.670;2024-03-29T15:22:23;18.50;99.90
27559;DHT22;15002;52.028;5.670;2024-03-29T15:24:49;18.50;99.90
27559;DHT22;15002;52.028;5.670;2024-03-29T15:27:15;18.50;99.90
27559;DHT22;15002;52.028;5.670;2024-03-29T15:30:01;18.40;99.90
27559;DHT22;15002;52.028;5.670;2024-03-29T15:32:27;18.20;99.90
27559;DHT22;15002;52.028;5.670;2024-03-29T15:34:57;18.00;99.90
27559;DHT22;15002;52.028;5.670;2024-03-29T15:37:23;17.90;99.90